Proctor, Texas
Current Conditions -  °F | °C
As of 3:15 AM on Sunday 21 Dec 2014 (Local Time) from KMKN Reporting Station
Overcast Overcast  
Wind Chill: 43°   Ceiling: 1600
Heat Index: 47°   Visibility: 10mi
Dew Point: 44°   Wind: 8mph
Humidity: 90%   Direction: 160°SSE
Pressure: 30.1"   Gusts: NA
Location:  31.99°N, 98.43°W
Report Text: KMKN 210915Z AUTO 16007KT 10SM OVC016 08/07 A3010 RMK AO2 T00810065
Loading
Personal Weather Stations






























Interactive Weather Map New forecast layout! Learn more

10-Day Weather Forecast

Advertisements
Track Severe Weather on mobile